LOT408 EDDL-EPWA
Flight info
| Callsign | LOT408 |
|---|---|
| Flight time | 1h 30m |
| Altitude | 35000 |
| Route | MEVEL4T MEVEL L179 MISRI Z851 ROBEG DCT ALUKA DCT TUPUR L29 TADAK DCT NASOK DCT SORIX |
| Aircraft | B738/M-SDE2E3FGHIRWXY/LB1 |
Departure
| Time | 2026-05-01 11:27 |
|---|---|
| Airport | Düsseldorf Airport (EDDL) |
Arrival
| Time | 2026-05-01 12:57 |
|---|---|
| Airport | Warsaw Chopin Airport (EPWA) |
| Time | Latitude | Longitude | Altitude | Speed | Heading |
|---|---|---|---|---|---|
| 2026-05-01 10:49 | 51.27867 | 6.76386 | 122 ft | 0 kts | 45° |
| 2026-05-01 11:14 | 51.27861 | 6.76377 | 127 ft | 4 kts | 48° |
| 2026-05-01 11:14 | 51.27846 | 6.76342 | 125 ft | 4 kts | 70° |
| 2026-05-01 11:14 | 51.27841 | 6.76307 | 125 ft | 2 kts | 89° |
| 2026-05-01 11:14 | 51.27841 | 6.76267 | 126 ft | 4 kts | 89° |
| 2026-05-01 11:15 | 51.27840 | 6.76224 | 125 ft | 4 kts | 89° |
| 2026-05-01 11:15 | 51.27840 | 6.76181 | 127 ft | 4 kts | 88° |
| 2026-05-01 11:15 | 51.27839 | 6.76138 | 127 ft | 4 kts | 84° |
| 2026-05-01 11:15 | 51.27834 | 6.76096 | 125 ft | 4 kts | 68° |
| 2026-05-01 11:16 | 51.27821 | 6.76066 | 123 ft | 4 kts | 34° |
| 2026-05-01 11:16 | 51.27797 | 6.76046 | 123 ft | 4 kts | 13° |
| 2026-05-01 11:16 | 51.27771 | 6.76042 | 123 ft | 4 kts | 358° |
| 2026-05-01 11:16 | 51.27759 | 6.76043 | 124 ft | 1 kts | 1° |
| 2026-05-01 11:19 | 51.27764 | 6.76043 | 124 ft | 3 kts | 1° |
| 2026-05-01 11:19 | 51.27817 | 6.76045 | 122 ft | 11 kts | 1° |
| 2026-05-01 11:19 | 51.27901 | 6.76049 | 127 ft | 13 kts | 1° |
| 2026-05-01 11:19 | 51.27989 | 6.76048 | 126 ft | 12 kts | 358° |
| 2026-05-01 11:20 | 51.28074 | 6.76044 | 127 ft | 12 kts | 347° |
| 2026-05-01 11:20 | 51.28148 | 6.76060 | 125 ft | 12 kts | 52° |
| 2026-05-01 11:20 | 51.28197 | 6.76164 | 128 ft | 12 kts | 52° |
| 2026-05-01 11:20 | 51.28250 | 6.76274 | 127 ft | 14 kts | 53° |
| 2026-05-01 11:21 | 51.28312 | 6.76405 | 124 ft | 16 kts | 52° |
| 2026-05-01 11:21 | 51.28383 | 6.76551 | 123 ft | 18 kts | 52° |
| 2026-05-01 11:21 | 51.28457 | 6.76710 | 125 ft | 18 kts | 54° |
| 2026-05-01 11:21 | 51.28529 | 6.76861 | 127 ft | 17 kts | 52° |
| 2026-05-01 11:22 | 51.28600 | 6.77008 | 124 ft | 16 kts | 52° |
| 2026-05-01 11:22 | 51.28668 | 6.77152 | 128 ft | 17 kts | 53° |
| 2026-05-01 11:22 | 51.28742 | 6.77305 | 128 ft | 18 kts | 52° |
| 2026-05-01 11:22 | 51.28824 | 6.77478 | 128 ft | 21 kts | 52° |
| 2026-05-01 11:23 | 51.28913 | 6.77666 | 126 ft | 21 kts | 53° |
| 2026-05-01 11:23 | 51.29002 | 6.77852 | 127 ft | 21 kts | 52° |
| 2026-05-01 11:23 | 51.29088 | 6.78034 | 130 ft | 20 kts | 53° |
| 2026-05-01 11:23 | 51.29153 | 6.78170 | 134 ft | 11 kts | 51° |
| 2026-05-01 11:24 | 51.29221 | 6.78211 | 136 ft | 11 kts | 352° |
| 2026-05-01 11:24 | 51.29286 | 6.78158 | 138 ft | 11 kts | 321° |
| 2026-05-01 11:24 | 51.29324 | 6.78061 | 138 ft | 2 kts | 234° |
| 2026-05-01 11:25 | 51.29323 | 6.78060 | 138 ft | 0 kts | 234° |
| 2026-05-01 11:26 | 51.29323 | 6.78059 | 138 ft | 1 kts | 233° |
| 2026-05-01 11:26 | 51.28970 | 6.77324 | 128 ft | 108 kts | 232° |
| 2026-05-01 11:26 | 51.28394 | 6.76103 | 149 ft | 162 kts | 230° |
| 2026-05-01 11:27 | 51.27715 | 6.74602 | 720 ft | 170 kts | 227° |
| 2026-05-01 11:27 | 51.27013 | 6.73067 | 1459 ft | 174 kts | 234° |
| 2026-05-01 11:27 | 51.26781 | 6.71118 | 2114 ft | 193 kts | 276° |
| 2026-05-01 11:27 | 51.27500 | 6.69227 | 2591 ft | 216 kts | 324° |
| 2026-05-01 11:28 | 51.28917 | 6.68389 | 3236 ft | 225 kts | 359° |
| 2026-05-01 11:28 | 51.30545 | 6.68637 | 3494 ft | 247 kts | 11° |
| 2026-05-01 11:28 | 51.32327 | 6.68965 | 3789 ft | 270 kts | 7° |
| 2026-05-01 11:29 | 51.36248 | 6.69437 | 5011 ft | 287 kts | 6° |
| 2026-05-01 11:29 | 51.38248 | 6.69665 | 5770 ft | 287 kts | 6° |
| 2026-05-01 11:29 | 51.42325 | 6.69740 | 7285 ft | 295 kts | 0° |
| 2026-05-01 11:30 | 51.44393 | 6.69681 | 8011 ft | 299 kts | 1° |
| 2026-05-01 11:30 | 51.46458 | 6.69639 | 8769 ft | 301 kts | 1° |
| 2026-05-01 11:30 | 51.48594 | 6.69616 | 9466 ft | 306 kts | 2° |
| 2026-05-01 11:30 | 51.50737 | 6.69607 | 10187 ft | 309 kts | 2° |
| 2026-05-01 11:31 | 51.52912 | 6.69607 | 10731 ft | 319 kts | 2° |
| 2026-05-01 11:31 | 51.55185 | 6.69614 | 10896 ft | 342 kts | 2° |
| 2026-05-01 11:31 | 51.57631 | 6.69623 | 11066 ft | 363 kts | 2° |
| 2026-05-01 11:31 | 51.60217 | 6.69890 | 11194 ft | 380 kts | 15° |
| 2026-05-01 11:32 | 51.62632 | 6.71673 | 11425 ft | 388 kts | 39° |
| 2026-05-01 11:32 | 51.64508 | 6.74764 | 11919 ft | 386 kts | 56° |
| 2026-05-01 11:32 | 51.66081 | 6.78293 | 12543 ft | 388 kts | 57° |
| 2026-05-01 11:32 | 51.67655 | 6.81836 | 13233 ft | 389 kts | 57° |
| 2026-05-01 11:33 | 51.69254 | 6.85377 | 13868 ft | 392 kts | 56° |
| 2026-05-01 11:33 | 51.70880 | 6.88932 | 14437 ft | 396 kts | 56° |
| 2026-05-01 11:33 | 51.72521 | 6.92513 | 15007 ft | 399 kts | 56° |
| 2026-05-01 11:33 | 51.74180 | 6.96134 | 15604 ft | 402 kts | 56° |
| 2026-05-01 11:34 | 51.75849 | 6.99782 | 16217 ft | 405 kts | 56° |
| 2026-05-01 11:34 | 51.77530 | 7.03462 | 16810 ft | 409 kts | 56° |
| 2026-05-01 11:34 | 51.79223 | 7.07176 | 17392 ft | 412 kts | 56° |
| 2026-05-01 11:34 | 51.80932 | 7.10932 | 17933 ft | 416 kts | 56° |
| 2026-05-01 11:35 | 51.82653 | 7.14719 | 18509 ft | 420 kts | 56° |
| 2026-05-01 11:35 | 51.84387 | 7.18541 | 18990 ft | 423 kts | 56° |
| 2026-05-01 11:35 | 51.86073 | 7.22377 | 19515 ft | 424 kts | 59° |
| 2026-05-01 11:35 | 51.87523 | 7.26537 | 20027 ft | 425 kts | 64° |
| 2026-05-01 11:36 | 51.88835 | 7.30818 | 20567 ft | 426 kts | 66° |
| 2026-05-01 11:36 | 51.90142 | 7.35130 | 21055 ft | 428 kts | 65° |
| 2026-05-01 11:36 | 51.91498 | 7.39448 | 21614 ft | 429 kts | 64° |
| 2026-05-01 11:36 | 51.92881 | 7.43743 | 22058 ft | 432 kts | 63° |
| 2026-05-01 11:37 | 51.94246 | 7.48106 | 22490 ft | 434 kts | 66° |
| 2026-05-01 11:37 | 51.95254 | 7.52733 | 22897 ft | 437 kts | 75° |
| 2026-05-01 11:37 | 51.96039 | 7.57517 | 23342 ft | 439 kts | 76° |
| 2026-05-01 11:37 | 51.96807 | 7.62321 | 23772 ft | 441 kts | 76° |
| 2026-05-01 11:38 | 51.97596 | 7.67167 | 24109 ft | 445 kts | 75° |
| 2026-05-01 11:38 | 51.98393 | 7.71947 | 24498 ft | 446 kts | 75° |
| 2026-05-01 11:38 | 51.99229 | 7.76874 | 24812 ft | 449 kts | 74° |
| 2026-05-01 11:38 | 52.00052 | 7.81696 | 25188 ft | 450 kts | 74° |
| 2026-05-01 11:39 | 52.00887 | 7.86613 | 25464 ft | 453 kts | 74° |
| 2026-05-01 11:39 | 52.01698 | 7.91549 | 25852 ft | 453 kts | 75° |
| 2026-05-01 11:39 | 52.02488 | 7.96519 | 26112 ft | 457 kts | 75° |
| 2026-05-01 11:39 | 52.03281 | 8.01520 | 26416 ft | 458 kts | 75° |
| 2026-05-01 11:40 | 52.04109 | 8.06546 | 26698 ft | 461 kts | 74° |
| 2026-05-01 11:40 | 52.04957 | 8.11579 | 27019 ft | 462 kts | 74° |
| 2026-05-01 11:40 | 52.05810 | 8.16628 | 27289 ft | 464 kts | 74° |
| 2026-05-01 11:40 | 52.06658 | 8.21694 | 27605 ft | 465 kts | 74° |
| 2026-05-01 11:41 | 52.07500 | 8.26769 | 28004 ft | 464 kts | 74° |
| 2026-05-01 11:41 | 52.08331 | 8.31837 | 28450 ft | 462 kts | 73° |
| 2026-05-01 11:41 | 52.09144 | 8.36874 | 28927 ft | 460 kts | 74° |
| 2026-05-01 11:41 | 52.09950 | 8.41908 | 29242 ft | 461 kts | 75° |
| 2026-05-01 11:42 | 52.10757 | 8.46960 | 29594 ft | 461 kts | 75° |
| 2026-05-01 11:42 | 52.11563 | 8.52020 | 29956 ft | 461 kts | 75° |
| 2026-05-01 11:42 | 52.12364 | 8.57057 | 30434 ft | 459 kts | 75° |
| 2026-05-01 11:42 | 52.13152 | 8.62020 | 30747 ft | 458 kts | 74° |
| 2026-05-01 11:43 | 52.13949 | 8.67055 | 31079 ft | 458 kts | 75° |
| 2026-05-01 11:43 | 52.14743 | 8.72081 | 31341 ft | 459 kts | 75° |
| 2026-05-01 11:43 | 52.15535 | 8.77116 | 31668 ft | 458 kts | 75° |
| 2026-05-01 11:44 | 52.17112 | 8.87168 | 32253 ft | 458 kts | 75° |
| 2026-05-01 11:44 | 52.17897 | 8.92200 | 32549 ft | 458 kts | 75° |
| 2026-05-01 11:44 | 52.18682 | 8.97230 | 32815 ft | 458 kts | 75° |
| 2026-05-01 11:44 | 52.19480 | 9.02258 | 33144 ft | 457 kts | 75° |
| 2026-05-01 11:45 | 52.20280 | 9.07273 | 33465 ft | 456 kts | 75° |
| 2026-05-01 11:45 | 52.21078 | 9.12279 | 33757 ft | 456 kts | 75° |
| 2026-05-01 11:45 | 52.21873 | 9.17286 | 34001 ft | 457 kts | 75° |
| 2026-05-01 11:45 | 52.22665 | 9.22305 | 34291 ft | 456 kts | 75° |
| 2026-05-01 11:46 | 52.23442 | 9.27252 | 34548 ft | 456 kts | 75° |
| 2026-05-01 11:46 | 52.24222 | 9.32259 | 34802 ft | 455 kts | 75° |
| 2026-05-01 11:46 | 52.24999 | 9.37278 | 35006 ft | 456 kts | 75° |
| 2026-05-01 11:46 | 52.25771 | 9.42296 | 35232 ft | 456 kts | 75° |
| 2026-05-01 11:47 | 52.26542 | 9.47316 | 35386 ft | 457 kts | 75° |
| 2026-05-01 11:47 | 52.27316 | 9.52367 | 35373 ft | 459 kts | 75° |
| 2026-05-01 11:47 | 52.28853 | 9.62451 | 35391 ft | 456 kts | 75° |
| 2026-05-01 11:48 | 52.30375 | 9.72486 | 35397 ft | 453 kts | 75° |
| 2026-05-01 11:48 | 52.31878 | 9.82457 | 35396 ft | 451 kts | 75° |
| 2026-05-01 11:49 | 52.33372 | 9.92434 | 35396 ft | 451 kts | 75° |
| 2026-05-01 11:49 | 52.34854 | 10.02392 | 35400 ft | 450 kts | 76° |
| 2026-05-01 11:50 | 52.36317 | 10.12284 | 35389 ft | 451 kts | 76° |
| 2026-05-01 11:50 | 52.37784 | 10.22264 | 35393 ft | 451 kts | 76° |
| 2026-05-01 11:51 | 52.39245 | 10.32276 | 35396 ft | 452 kts | 76° |
| 2026-05-01 11:51 | 52.40700 | 10.42304 | 35401 ft | 453 kts | 77° |
| 2026-05-01 11:52 | 52.42153 | 10.52383 | 35407 ft | 453 kts | 76° |
| 2026-05-01 11:52 | 52.43583 | 10.62376 | 35401 ft | 453 kts | 76° |
| 2026-05-01 11:53 | 52.45014 | 10.72431 | 35400 ft | 453 kts | 77° |
| 2026-05-01 11:53 | 52.46433 | 10.82477 | 35400 ft | 452 kts | 77° |
| 2026-05-01 11:54 | 52.47844 | 10.92529 | 35398 ft | 452 kts | 77° |
| 2026-05-01 11:54 | 52.49247 | 11.02588 | 35401 ft | 452 kts | 77° |
| 2026-05-01 11:55 | 52.50638 | 11.12637 | 35394 ft | 451 kts | 77° |
| 2026-05-01 11:55 | 52.52019 | 11.22674 | 35396 ft | 451 kts | 77° |
| 2026-05-01 11:56 | 52.53391 | 11.32718 | 35395 ft | 450 kts | 77° |
| 2026-05-01 11:56 | 52.54746 | 11.42705 | 35396 ft | 450 kts | 77° |
| 2026-05-01 11:57 | 52.55882 | 11.51125 | 35403 ft | 450 kts | 77° |
| 2026-05-01 11:57 | 52.57449 | 11.62800 | 35403 ft | 450 kts | 76° |
| 2026-05-01 11:58 | 52.58982 | 11.72764 | 35402 ft | 449 kts | 74° |
| 2026-05-01 11:59 | 52.61395 | 11.87653 | 35401 ft | 449 kts | 74° |
| 2026-05-01 11:59 | 52.62703 | 11.95917 | 35401 ft | 449 kts | 75° |
| 2026-05-01 12:00 | 52.65275 | 12.12475 | 35415 ft | 448 kts | 75° |
| 2026-05-01 12:01 | 52.67319 | 12.25797 | 35409 ft | 448 kts | 75° |
| 2026-05-01 12:01 | 52.68827 | 12.35684 | 35404 ft | 448 kts | 75° |
| 2026-05-01 12:02 | 52.70336 | 12.45645 | 35408 ft | 447 kts | 75° |
| 2026-05-01 12:02 | 52.71836 | 12.55608 | 35408 ft | 447 kts | 75° |
| 2026-05-01 12:03 | 52.73328 | 12.65574 | 35412 ft | 447 kts | 75° |
| 2026-05-01 12:03 | 52.74813 | 12.75563 | 35406 ft | 447 kts | 75° |
| 2026-05-01 12:04 | 52.76277 | 12.85469 | 35404 ft | 447 kts | 75° |
| 2026-05-01 12:04 | 52.77741 | 12.95438 | 35402 ft | 446 kts | 75° |
| 2026-05-01 12:05 | 52.79194 | 13.05397 | 35404 ft | 446 kts | 75° |
| 2026-05-01 12:05 | 52.81360 | 13.20360 | 35405 ft | 446 kts | 75° |
| 2026-05-01 12:06 | 52.82793 | 13.30343 | 35404 ft | 446 kts | 75° |
| 2026-05-01 12:06 | 52.84205 | 13.40247 | 35403 ft | 445 kts | 75° |
| 2026-05-01 12:07 | 52.85619 | 13.50223 | 35401 ft | 445 kts | 75° |
| 2026-05-01 12:07 | 52.87025 | 13.60212 | 35401 ft | 445 kts | 75° |
| 2026-05-01 12:08 | 52.88421 | 13.70190 | 35402 ft | 445 kts | 76° |
| 2026-05-01 12:08 | 52.89809 | 13.80184 | 35409 ft | 445 kts | 75° |
| 2026-05-01 12:09 | 52.91188 | 13.90174 | 35395 ft | 445 kts | 75° |
| 2026-05-01 12:09 | 52.92558 | 14.00168 | 35392 ft | 444 kts | 75° |
| 2026-05-01 12:10 | 52.94596 | 14.15169 | 35394 ft | 444 kts | 76° |
| 2026-05-01 12:11 | 52.96607 | 14.30115 | 35394 ft | 444 kts | 76° |
| 2026-05-01 12:11 | 52.97942 | 14.40127 | 35392 ft | 445 kts | 75° |
| 2026-05-01 12:12 | 52.99269 | 14.50145 | 35387 ft | 445 kts | 75° |
| 2026-05-01 12:12 | 53.00590 | 14.60184 | 35383 ft | 444 kts | 76° |
| 2026-05-01 12:13 | 53.01899 | 14.70207 | 35383 ft | 444 kts | 76° |
| 2026-05-01 12:13 | 53.03202 | 14.80249 | 35380 ft | 444 kts | 76° |
| 2026-05-01 12:14 | 53.04487 | 14.90230 | 35378 ft | 444 kts | 76° |
| 2026-05-01 12:14 | 53.05771 | 15.00274 | 35381 ft | 444 kts | 76° |
| 2026-05-01 12:15 | 53.07045 | 15.10311 | 35374 ft | 444 kts | 76° |
| 2026-05-01 12:15 | 53.08312 | 15.20363 | 35377 ft | 444 kts | 76° |
| 2026-05-01 12:16 | 53.09572 | 15.30434 | 35372 ft | 444 kts | 76° |
| 2026-05-01 12:16 | 53.10822 | 15.40497 | 35372 ft | 444 kts | 76° |
| 2026-05-01 12:17 | 53.12055 | 15.50500 | 35378 ft | 444 kts | 76° |
| 2026-05-01 12:17 | 53.13289 | 15.60586 | 35361 ft | 444 kts | 76° |
| 2026-05-01 12:18 | 53.14511 | 15.70649 | 35361 ft | 443 kts | 76° |
| 2026-05-01 12:18 | 53.15724 | 15.80707 | 35361 ft | 443 kts | 76° |
| 2026-05-01 12:19 | 53.16920 | 15.90708 | 35362 ft | 442 kts | 76° |
| 2026-05-01 12:19 | 53.18124 | 16.00848 | 35356 ft | 442 kts | 76° |
| 2026-05-01 12:20 | 53.19302 | 16.10849 | 35352 ft | 442 kts | 76° |
| 2026-05-01 12:20 | 53.20479 | 16.20913 | 35352 ft | 441 kts | 76° |
| 2026-05-01 12:21 | 53.21646 | 16.30972 | 35347 ft | 441 kts | 76° |
| 2026-05-01 12:21 | 53.22802 | 16.41018 | 35334 ft | 441 kts | 76° |
| 2026-05-01 12:22 | 53.23950 | 16.51066 | 35344 ft | 441 kts | 76° |
| 2026-05-01 12:22 | 53.25083 | 16.61066 | 35363 ft | 441 kts | 76° |
| 2026-05-01 12:23 | 53.26214 | 16.71127 | 35346 ft | 440 kts | 76° |
| 2026-05-01 12:23 | 53.27338 | 16.81192 | 35340 ft | 440 kts | 76° |
| 2026-05-01 12:24 | 53.28117 | 16.91355 | 35331 ft | 444 kts | 86° |
| 2026-05-01 12:24 | 53.27442 | 17.01668 | 35338 ft | 448 kts | 94° |
| 2026-05-01 12:25 | 53.26064 | 17.17115 | 35358 ft | 448 kts | 94° |
| 2026-05-01 12:26 | 53.25176 | 17.27399 | 35339 ft | 447 kts | 94° |
| 2026-05-01 12:26 | 53.23864 | 17.42746 | 35334 ft | 447 kts | 94° |
| 2026-05-01 12:27 | 53.22532 | 17.58131 | 35331 ft | 446 kts | 94° |
| 2026-05-01 12:28 | 53.21180 | 17.73504 | 35337 ft | 446 kts | 94° |
| 2026-05-01 12:29 | 53.19807 | 17.88861 | 35342 ft | 446 kts | 94° |
| 2026-05-01 12:29 | 53.18415 | 18.04202 | 35346 ft | 446 kts | 94° |
| 2026-05-01 12:30 | 53.17006 | 18.19507 | 35363 ft | 446 kts | 94° |
| 2026-05-01 12:31 | 53.15936 | 18.29632 | 35335 ft | 450 kts | 101° |
| 2026-05-01 12:31 | 53.13383 | 18.39271 | 35341 ft | 457 kts | 111° |
| 2026-05-01 12:32 | 53.10484 | 18.48703 | 35337 ft | 458 kts | 112° |
| 2026-05-01 12:32 | 53.06178 | 18.62880 | 35355 ft | 457 kts | 111° |
| 2026-05-01 12:33 | 53.03328 | 18.72340 | 35341 ft | 457 kts | 111° |
| 2026-05-01 12:33 | 53.00478 | 18.81781 | 35330 ft | 457 kts | 111° |
| 2026-05-01 12:34 | 52.97616 | 18.91220 | 35334 ft | 457 kts | 111° |
| 2026-05-01 12:34 | 52.94763 | 19.00588 | 35328 ft | 457 kts | 111° |
| 2026-05-01 12:35 | 52.91882 | 19.10009 | 35340 ft | 458 kts | 111° |
| 2026-05-01 12:35 | 52.88987 | 19.19447 | 34766 ft | 464 kts | 111° |
| 2026-05-01 12:36 | 52.87527 | 19.24190 | 34151 ft | 461 kts | 111° |
| 2026-05-01 12:36 | 52.86073 | 19.28899 | 33369 ft | 460 kts | 111° |
| 2026-05-01 12:36 | 52.84613 | 19.33618 | 32650 ft | 459 kts | 111° |
| 2026-05-01 12:36 | 52.83160 | 19.38310 | 31892 ft | 458 kts | 111° |
| 2026-05-01 12:37 | 52.81706 | 19.42997 | 31119 ft | 458 kts | 111° |
| 2026-05-01 12:37 | 52.80251 | 19.47678 | 30338 ft | 457 kts | 111° |
| 2026-05-01 12:37 | 52.78813 | 19.52294 | 29443 ft | 457 kts | 111° |
| 2026-05-01 12:37 | 52.77359 | 19.56952 | 28538 ft | 456 kts | 111° |
| 2026-05-01 12:38 | 52.75906 | 19.61601 | 27635 ft | 455 kts | 111° |
| 2026-05-01 12:38 | 52.74453 | 19.66241 | 26690 ft | 455 kts | 111° |
| 2026-05-01 12:38 | 52.73000 | 19.70874 | 25859 ft | 454 kts | 111° |
| 2026-05-01 12:38 | 52.71556 | 19.75466 | 25207 ft | 448 kts | 111° |
| 2026-05-01 12:39 | 52.70127 | 19.79999 | 24534 ft | 443 kts | 111° |
| 2026-05-01 12:39 | 52.68702 | 19.84471 | 23872 ft | 440 kts | 112° |
| 2026-05-01 12:39 | 52.67207 | 19.88864 | 23115 ft | 436 kts | 114° |
| 2026-05-01 12:39 | 52.65692 | 19.93164 | 22422 ft | 432 kts | 114° |
| 2026-05-01 12:40 | 52.64187 | 19.97403 | 21758 ft | 427 kts | 114° |
| 2026-05-01 12:40 | 52.62701 | 20.01605 | 21089 ft | 422 kts | 114° |
| 2026-05-01 12:40 | 52.61239 | 20.05762 | 20442 ft | 418 kts | 114° |
| 2026-05-01 12:40 | 52.59793 | 20.09893 | 19797 ft | 414 kts | 114° |
| 2026-05-01 12:41 | 52.58362 | 20.13982 | 19171 ft | 411 kts | 113° |
| 2026-05-01 12:41 | 52.56943 | 20.18038 | 18525 ft | 408 kts | 113° |
| 2026-05-01 12:41 | 52.55530 | 20.22075 | 17809 ft | 406 kts | 113° |
| 2026-05-01 12:41 | 52.54127 | 20.26074 | 17136 ft | 402 kts | 114° |
| 2026-05-01 12:42 | 52.52733 | 20.30034 | 16502 ft | 399 kts | 114° |
| 2026-05-01 12:42 | 52.51367 | 20.33906 | 15901 ft | 395 kts | 114° |
| 2026-05-01 12:42 | 52.50000 | 20.37807 | 15273 ft | 392 kts | 114° |
| 2026-05-01 12:42 | 52.48653 | 20.41678 | 14659 ft | 389 kts | 114° |
| 2026-05-01 12:43 | 52.47317 | 20.45524 | 14022 ft | 387 kts | 114° |
| 2026-05-01 12:43 | 52.45984 | 20.49355 | 13356 ft | 385 kts | 114° |
| 2026-05-01 12:43 | 52.44664 | 20.53142 | 12715 ft | 382 kts | 114° |
| 2026-05-01 12:43 | 52.43348 | 20.56910 | 12095 ft | 379 kts | 114° |
| 2026-05-01 12:44 | 52.42043 | 20.60642 | 11524 ft | 375 kts | 114° |
| 2026-05-01 12:44 | 52.40770 | 20.64264 | 11414 ft | 360 kts | 114° |
| 2026-05-01 12:44 | 52.38356 | 20.71119 | 11101 ft | 335 kts | 114° |
| 2026-05-01 12:45 | 52.36081 | 20.77567 | 10844 ft | 321 kts | 114° |
| 2026-05-01 12:45 | 52.34982 | 20.80685 | 10715 ft | 323 kts | 114° |
| 2026-05-01 12:45 | 52.33852 | 20.83890 | 10580 ft | 327 kts | 114° |
| 2026-05-01 12:46 | 52.32713 | 20.87112 | 10440 ft | 327 kts | 114° |
| 2026-05-01 12:46 | 52.31573 | 20.90329 | 10254 ft | 327 kts | 115° |
| 2026-05-01 12:46 | 52.30425 | 20.93570 | 9884 ft | 330 kts | 115° |
| 2026-05-01 12:46 | 52.29268 | 20.96824 | 9542 ft | 330 kts | 115° |
| 2026-05-01 12:47 | 52.28120 | 21.00042 | 9191 ft | 325 kts | 115° |
| 2026-05-01 12:47 | 52.26769 | 21.02983 | 8841 ft | 329 kts | 134° |
| 2026-05-01 12:47 | 52.25518 | 21.04384 | 8672 ft | 329 kts | 147° |
| 2026-05-01 12:47 | 52.23491 | 21.06111 | 8360 ft | 329 kts | 149° |
| 2026-05-01 12:48 | 52.20773 | 21.08385 | 7730 ft | 330 kts | 149° |
| 2026-05-01 12:48 | 52.18764 | 21.10091 | 7540 ft | 321 kts | 149° |
| 2026-05-01 12:48 | 52.17441 | 21.11222 | 7442 ft | 315 kts | 149° |
| 2026-05-01 12:48 | 52.15525 | 21.12866 | 7313 ft | 307 kts | 149° |
| 2026-05-01 12:49 | 52.13651 | 21.14492 | 7014 ft | 302 kts | 149° |
| 2026-05-01 12:49 | 52.11830 | 21.16086 | 6710 ft | 292 kts | 148° |
| 2026-05-01 12:49 | 52.10096 | 21.17608 | 6424 ft | 283 kts | 149° |
| 2026-05-01 12:49 | 52.08390 | 21.19103 | 6143 ft | 274 kts | 149° |
| 2026-05-01 12:50 | 52.06740 | 21.20549 | 5867 ft | 265 kts | 149° |
| 2026-05-01 12:50 | 52.05141 | 21.21947 | 5638 ft | 257 kts | 150° |
| 2026-05-01 12:50 | 52.03572 | 21.23317 | 5394 ft | 256 kts | 150° |
| 2026-05-01 12:50 | 52.02023 | 21.24667 | 5182 ft | 249 kts | 150° |
| 2026-05-01 12:51 | 52.00500 | 21.25947 | 4921 ft | 244 kts | 158° |
| 2026-05-01 12:51 | 51.98864 | 21.26271 | 4720 ft | 235 kts | 191° |
| 2026-05-01 12:51 | 51.96522 | 21.23238 | 4364 ft | 219 kts | 252° |
| 2026-05-01 12:52 | 51.96317 | 21.20834 | 4227 ft | 216 kts | 279° |
| 2026-05-01 12:52 | 51.97211 | 21.16227 | 3975 ft | 211 kts | 292° |
| 2026-05-01 12:52 | 51.97690 | 21.14030 | 3844 ft | 202 kts | 296° |
| 2026-05-01 12:53 | 51.99770 | 21.11695 | 3686 ft | 188 kts | 334° |
| 2026-05-01 12:53 | 52.00814 | 21.10475 | 3625 ft | 183 kts | 324° |
| 2026-05-01 12:53 | 52.01941 | 21.09548 | 3416 ft | 180 kts | 338° |
| 2026-05-01 12:54 | 52.03077 | 21.08614 | 3161 ft | 183 kts | 332° |
| 2026-05-01 12:54 | 52.05269 | 21.06629 | 2672 ft | 177 kts | 333° |
| 2026-05-01 12:54 | 52.06343 | 21.05683 | 2462 ft | 175 kts | 333° |
| 2026-05-01 12:55 | 52.08415 | 21.03867 | 1977 ft | 162 kts | 333° |
| 2026-05-01 12:55 | 52.09394 | 21.03007 | 1749 ft | 154 kts | 333° |
| 2026-05-01 12:55 | 52.10278 | 21.02231 | 1565 ft | 143 kts | 334° |
| 2026-05-01 12:56 | 52.11154 | 21.01464 | 1394 ft | 144 kts | 334° |
| 2026-05-01 12:56 | 52.12042 | 21.00681 | 1159 ft | 144 kts | 334° |
| 2026-05-01 12:56 | 52.12941 | 20.99889 | 941 ft | 150 kts | 333° |
| 2026-05-01 12:56 | 52.13842 | 20.99074 | 735 ft | 146 kts | 335° |
| 2026-05-01 12:57 | 52.14745 | 20.98304 | 542 ft | 147 kts | 334° |
| 2026-05-01 12:57 | 52.16488 | 20.96787 | 337 ft | 114 kts | 332° |
| 2026-05-01 12:57 | 52.16973 | 20.96365 | 336 ft | 45 kts | 332° |
| 2026-05-01 12:58 | 52.17218 | 20.96242 | 335 ft | 28 kts | 358° |
| 2026-05-01 12:58 | 52.17342 | 20.96245 | 334 ft | 15 kts | 1° |
| 2026-05-01 12:58 | 52.17416 | 20.96347 | 337 ft | 14 kts | 59° |
| 2026-05-01 12:59 | 52.17520 | 20.96609 | 336 ft | 13 kts | 56° |
| 2026-05-01 12:59 | 52.17567 | 20.96734 | 337 ft | 13 kts | 58° |
| 2026-05-01 12:59 | 52.17595 | 20.96970 | 336 ft | 12 kts | 149° |
| 2026-05-01 13:00 | 52.17454 | 20.97094 | 336 ft | 9 kts | 152° |
| 2026-05-01 13:00 | 52.17412 | 20.97127 | 337 ft | 5 kts | 172° |
| 2026-05-01 13:01 | 52.17379 | 20.97054 | 335 ft | 2 kts | 242° |
| 2026-05-01 13:01 | 52.17377 | 20.97048 | 335 ft | 0 kts | 242° |